Time;durP1;ratioP1;P1;durP2;ratioP2;P2;SDS_P1;SDS_P2;PMS_P1;PMS_P2;Temp;Humidity;BMP_temperature;BMP_pressure;BME280_temperature;BME280_humidity;BME280_pressure;Samples;Min_cycle;Max_cycle;Signal;HPM_P1;HPM_P2
2022/08/18 00:00:12;;;;;;;8.85;5.90;;;21.00;99.90;;;;;;5006765;28;20088;-68
2022/08/18 00:02:40;;;;;;;7.32;6.07;;;20.90;99.90;;;;;;5000616;28;20021;-68
2022/08/18 00:05:06;;;;;;;7.85;5.93;;;20.90;99.90;;;;;;5008972;28;20602;-68
2022/08/18 00:07:32;;;;;;;8.55;6.60;;;20.90;99.90;;;;;;5009679;28;20017;-68
2022/08/18 00:10:00;;;;;;;10.55;6.38;;;20.80;99.90;;;;;;5008890;28;20508;-68
2022/08/18 00:12:40;;;;;;;7.50;5.90;;;20.80;99.90;;;;;;5005855;28;20048;-68
2022/08/18 00:15:08;;;;;;;7.70;5.90;;;20.70;99.90;;;;;;5002376;28;20022;-68
2022/08/18 00:17:35;;;;;;;8.52;5.72;;;20.70;99.90;;;;;;5006456;28;20798;-68
2022/08/18 00:20:02;;;;;;;8.13;5.70;;;20.60;99.90;;;;;;5007990;28;20088;-68
2022/08/18 00:22:28;;;;;;;8.00;6.70;;;20.60;99.90;;;;;;5003463;28;21845;-68
2022/08/18 00:24:55;;;;;;;7.80;6.40;;;20.60;99.90;;;;;;5006205;28;20022;-68
2022/08/18 00:27:28;;;;;;;10.20;6.22;;;20.60;99.90;;;;;;5006118;28;20103;-68
2022/08/18 00:29:56;;;;;;;9.48;6.78;;;20.50;99.90;;;;;;5005732;28;20021;-68
2022/08/18 00:32:28;;;;;;;9.80;6.72;;;20.60;99.90;;;;;;5005542;28;20026;-68
2022/08/18 00:34:54;;;;;;;10.95;6.18;;;20.50;99.90;;;;;;5004321;28;20037;-68
2022/08/18 00:37:22;;;;;;;7.50;6.20;;;20.60;99.90;;;;;;5006242;28;20030;-68
2022/08/18 00:39:51;;;;;;;9.07;6.30;;;20.60;99.90;;;;;;5006193;28;20089;-68
2022/08/18 00:42:24;;;;;;;10.82;6.35;;;20.50;99.90;;;;;;5006817;28;20026;-68
2022/08/18 00:44:50;;;;;;;7.22;5.25;;;20.50;99.90;;;;;;5009749;28;20022;-67
2022/08/18 00:47:16;;;;;;;7.00;5.57;;;20.50;99.90;;;;;;5003776;28;20471;-68
2022/08/18 00:49:44;;;;;;;6.30;5.30;;;20.50;99.90;;;;;;5006445;28;20079;-68
2022/08/18 00:52:12;;;;;;;5.35;4.85;;;20.50;99.90;;;;;;5005856;28;20034;-68
2022/08/18 00:54:40;;;;;;;9.25;5.60;;;20.40;99.90;;;;;;5006138;28;20080;-68
2022/08/18 00:57:07;;;;;;;7.15;5.07;;;20.40;99.90;;;;;;5007955;28;20395;-68
2022/08/18 00:59:56;;;;;;;6.93;5.25;;;20.40;99.90;;;;;;5005995;28;20030;-68
2022/08/18 01:02:27;;;;;;;7.40;5.05;;;20.30;99.90;;;;;;5008257;28;20633;-68
2022/08/18 01:05:00;;;;;;;7.57;5.50;;;20.30;99.90;;;;;;5005589;28;20053;-68
2022/08/18 01:07:47;;;;;;;7.03;5.32;;;20.30;99.90;;;;;;5004788;28;20049;-68
2022/08/18 01:10:17;;;;;;;7.13;4.72;;;20.30;99.90;;;;;;5022206;28;20030;-68
2022/08/18 01:12:54;;;;;;;9.02;5.38;;;20.30;99.90;;;;;;5007894;28;20030;-68
2022/08/18 01:15:21;;;;;;;7.07;5.40;;;20.30;99.90;;;;;;5006657;28;20092;-68
2022/08/18 01:23:38;;;;;;;8.60;5.70;;;20.20;99.90;;;;;;5006364;28;20117;-68
2022/08/18 01:26:05;;;;;;;7.13;5.10;;;20.20;99.90;;;;;;5005647;28;20096;-68
2022/08/18 01:28:34;;;;;;;7.90;5.60;;;20.20;99.90;;;;;;5010334;28;20033;-67
2022/08/18 01:31:00;;;;;;;7.65;6.00;;;20.20;99.90;;;;;;5011589;28;20054;-68
2022/08/18 01:33:32;;;;;;;8.27;5.43;;;20.20;99.90;;;;;;5006069;28;20116;-68
2022/08/18 01:36:01;;;;;;;9.43;6.85;;;20.10;99.90;;;;;;5003073;28;20490;-68
2022/08/18 01:38:27;;;;;;;6.90;5.22;;;20.10;99.90;;;;;;5012429;28;20077;-68
2022/08/18 01:40:53;;;;;;;8.10;5.78;;;20.10;99.90;;;;;;5011879;28;20491;-68
2022/08/18 01:43:19;;;;;;;7.90;5.85;;;20.10;99.90;;;;;;5008714;28;20029;-68
2022/08/18 01:45:46;;;;;;;11.30;6.40;;;20.10;99.90;;;;;;5006486;28;20123;-68
2022/08/18 01:48:12;;;;;;;8.25;5.82;;;20.20;99.90;;;;;;5005887;28;20341;-68
2022/08/18 01:50:38;;;;;;;7.05;5.40;;;20.10;99.90;;;;;;5008507;28;20084;-68
2022/08/18 01:53:06;;;;;;;8.88;5.75;;;20.10;99.90;;;;;;5008282;28;20040;-68
2022/08/18 01:55:37;;;;;;;6.60;5.60;;;20.10;99.90;;;;;;5006071;28;20444;-68
2022/08/18 01:58:04;;;;;;;7.78;5.95;;;20.10;99.90;;;;;;5011606;28;20021;-68
2022/08/18 02:00:31;;;;;;;8.70;5.13;;;20.10;99.90;;;;;;5008649;28;20026;-68
2022/08/18 02:02:58;;;;;;;7.00;5.70;;;20.10;99.90;;;;;;5006605;28;20441;-68
2022/08/18 02:05:33;;;;;;;6.43;5.10;;;20.00;99.90;;;;;;5009784;28;20018;-68
2022/08/18 02:07:58;;;;;;;8.40;6.03;;;20.00;99.90;;;;;;5009028;28;20040;-68
2022/08/18 02:10:24;;;;;;;6.80;5.28;;;20.00;99.90;;;;;;5010935;28;20109;-68
2022/08/18 02:12:50;;;;;;;7.18;5.70;;;20.00;99.90;;;;;;5009060;28;20033;-68
2022/08/18 02:15:15;;;;;;;7.82;6.20;;;20.00;99.90;;;;;;5009524;28;20037;-68
2022/08/18 02:17:44;;;;;;;7.55;5.85;;;20.00;99.90;;;;;;5010324;28;20390;-68
2022/08/18 02:20:13;;;;;;;10.77;6.13;;;20.00;99.90;;;;;;5008192;28;20042;-68
2022/08/18 02:22:41;;;;;;;7.35;5.63;;;20.00;99.90;;;;;;5008243;28;20494;-68
2022/08/18 02:25:08;;;;;;;7.97;5.93;;;20.00;99.90;;;;;;5011051;28;20060;-68
2022/08/18 02:27:34;;;;;;;7.88;5.88;;;20.00;99.90;;;;;;5012115;28;20040;-68
2022/08/18 02:30:01;;;;;;;7.93;6.05;;;20.00;99.90;;;;;;5010293;28;20030;-68
2022/08/18 02:32:27;;;;;;;7.35;5.30;;;20.00;99.90;;;;;;5006250;28;20030;-68
2022/08/18 02:34:53;;;;;;;7.03;5.68;;;20.00;99.90;;;;;;5006671;28;20030;-68
2022/08/18 02:37:20;;;;;;;7.38;5.97;;;19.90;99.90;;;;;;5008467;28;20034;-69
2022/08/18 02:39:45;;;;;;;8.95;6.45;;;19.90;99.90;;;;;;5012220;28;20026;-68
2022/08/18 02:42:13;;;;;;;6.32;5.50;;;20.00;99.90;;;;;;5007685;28;20395;-68
2022/08/18 02:44:39;;;;;;;8.63;5.70;;;20.00;99.90;;;;;;5008424;28;20029;-68
2022/08/18 02:47:05;;;;;;;5.82;5.05;;;20.00;99.90;;;;;;5008292;28;20030;-68
2022/08/18 02:49:31;;;;;;;7.18;5.68;;;20.00;99.90;;;;;;5006471;28;20040;-68
2022/08/18 02:51:56;;;;;;;7.38;5.95;;;20.00;99.90;;;;;;5010489;28;20030;-68
2022/08/18 02:54:23;;;;;;;8.23;5.50;;;20.00;99.90;;;;;;5005090;28;20099;-68
2022/08/18 02:56:50;;;;;;;8.05;6.20;;;20.00;99.90;;;;;;5006988;28;20018;-69
2022/08/18 02:59:20;;;;;;;6.80;5.82;;;20.00;99.90;;;;;;5009883;28;20121;-68
2022/08/18 03:01:50;;;;;;;7.65;5.68;;;19.90;99.90;;;;;;5008304;28;20133;-68
2022/08/18 03:04:18;;;;;;;7.03;6.13;;;19.90;99.90;;;;;;5009843;28;20025;-68
2022/08/18 03:06:45;;;;;;;7.00;5.70;;;19.90;99.90;;;;;;5008451;28;20017;-68
2022/08/18 03:09:12;;;;;;;6.30;5.15;;;19.80;99.90;;;;;;5005246;28;20022;-69
2022/08/18 03:11:38;;;;;;;6.95;5.68;;;19.80;99.90;;;;;;5002070;28;20450;-68
2022/08/18 03:14:05;;;;;;;7.07;5.85;;;19.80;99.90;;;;;;5007119;28;20025;-69
2022/08/18 03:16:31;;;;;;;10.38;6.00;;;19.80;99.90;;;;;;5007240;28;20033;-69
2022/08/18 03:18:58;;;;;;;5.50;4.65;;;19.80;99.90;;;;;;5008627;28;20029;-69
2022/08/18 03:21:26;;;;;;;6.35;4.88;;;19.70;99.90;;;;;;5006190;28;20037;-69
2022/08/18 03:23:53;;;;;;;8.07;5.15;;;19.70;99.90;;;;;;5021284;28;20033;-68
2022/08/18 03:26:21;;;;;;;6.05;5.32;;;19.70;99.90;;;;;;5007277;28;20038;-68
2022/08/18 03:28:49;;;;;;;7.38;5.80;;;19.70;99.90;;;;;;5007477;28;20113;-68
2022/08/18 03:31:16;;;;;;;7.78;5.53;;;19.70;99.90;;;;;;5008182;28;20026;-68
2022/08/18 03:33:43;;;;;;;8.07;5.60;;;19.80;99.90;;;;;;5007773;28;20025;-68
2022/08/18 03:36:13;;;;;;;12.90;7.40;;;19.70;99.90;;;;;;5008009;28;20038;-68
2022/08/18 03:38:40;;;;;;;9.70;6.38;;;19.70;99.90;;;;;;5004562;28;20017;-68
2022/08/18 03:41:07;;;;;;;8.48;6.65;;;19.70;99.90;;;;;;5004959;28;20399;-68
2022/08/18 03:43:33;;;;;;;9.48;7.15;;;19.70;99.90;;;;;;5008039;28;20021;-68
2022/08/18 03:46:01;;;;;;;8.95;7.13;;;19.70;99.90;;;;;;5006719;28;20029;-68
2022/08/18 03:48:27;;;;;;;8.82;6.60;;;19.70;99.90;;;;;;5006417;28;20440;-68
2022/08/18 03:50:53;;;;;;;9.05;6.78;;;19.70;99.90;;;;;;5008958;28;20060;-68
2022/08/18 03:53:18;;;;;;;9.05;6.40;;;19.70;99.90;;;;;;5005933;28;20066;-68
2022/08/18 03:55:44;;;;;;;8.40;6.70;;;19.70;99.90;;;;;;5006684;28;20471;-68
2022/08/18 03:58:13;;;;;;;7.53;6.50;;;19.60;99.90;;;;;;5003088;28;20029;-67
2022/08/18 04:00:39;;;;;;;8.50;6.15;;;19.60;99.90;;;;;;5007555;28;20022;-67
2022/08/18 04:03:05;;;;;;;8.43;5.93;;;19.60;99.90;;;;;;5008678;28;20616;-68
2022/08/18 04:05:33;;;;;;;10.48;5.80;;;19.60;99.90;;;;;;5005487;28;20541;-68
2022/08/18 04:08:01;;;;;;;8.88;6.60;;;19.60;99.90;;;;;;5007491;28;20049;-68
2022/08/18 04:10:27;;;;;;;9.15;6.50;;;19.60;99.90;;;;;;5007236;28;20022;-68
2022/08/18 04:12:53;;;;;;;8.68;6.57;;;19.60;99.90;;;;;;5007219;28;20545;-68
2022/08/18 04:15:19;;;;;;;7.70;5.90;;;19.60;99.90;;;;;;5008378;28;20483;-68
2022/08/18 04:17:45;;;;;;;9.35;6.78;;;19.50;99.90;;;;;;5003068;28;20048;-68
2022/08/18 04:20:11;;;;;;;7.85;6.82;;;19.50;99.90;;;;;;5007256;28;20088;-68
2022/08/18 04:22:38;;;;;;;9.02;6.03;;;19.50;99.90;;;;;;5008222;28;20045;-67
2022/08/18 04:25:04;;;;;;;9.32;7.10;;;19.50;99.90;;;;;;5006282;28;20033;-68
2022/08/18 04:27:29;;;;;;;7.88;6.13;;;19.50;99.90;;;;;;5004618;28;20360;-68
2022/08/18 04:29:58;;;;;;;10.50;7.38;;;19.50;99.90;;;;;;5019935;28;20033;-67
2022/08/18 04:32:24;;;;;;;9.57;6.65;;;19.50;99.90;;;;;;5002542;28;20519;-67
2022/08/18 04:34:49;;;;;;;8.50;6.75;;;19.40;99.90;;;;;;5008250;28;20022;-68
2022/08/18 04:37:16;;;;;;;7.75;6.70;;;19.40;99.90;;;;;;5005176;28;20053;-67
2022/08/18 04:39:42;;;;;;;8.35;7.00;;;19.40;99.90;;;;;;5006786;28;20032;-68
2022/08/18 04:42:08;;;;;;;9.48;6.90;;;19.40;99.90;;;;;;5008192;28;20030;-67
2022/08/18 04:44:36;;;;;;;10.98;7.18;;;19.40;99.90;;;;;;5006041;28;20037;-68
2022/08/18 04:47:03;;;;;;;10.55;7.22;;;19.40;99.90;;;;;;5005686;28;20737;-68
2022/08/18 04:49:30;;;;;;;10.40;7.78;;;19.40;99.90;;;;;;5005923;28;20026;-67
2022/08/18 04:54:41;;;;;;;10.75;6.78;;;19.50;99.90;;;;;;5008763;28;20517;-68
2022/08/18 04:57:11;;;;;;;9.77;7.40;;;19.50;99.90;;;;;;5007824;28;20044;-67
2022/08/18 04:59:39;;;;;;;9.85;6.80;;;19.50;99.90;;;;;;5010240;28;20018;-67
2022/08/18 05:02:06;;;;;;;10.13;6.50;;;19.50;99.90;;;;;;5008142;28;20072;-68
2022/08/18 05:04:33;;;;;;;9.05;6.53;;;19.50;99.90;;;;;;5026023;28;20022;-68
2022/08/18 05:06:59;;;;;;;7.68;5.63;;;19.60;99.90;;;;;;5009914;28;20434;-68
2022/08/18 05:09:25;;;;;;;8.38;6.00;;;19.60;99.90;;;;;;5008380;28;20029;-68
2022/08/18 05:11:50;;;;;;;8.13;6.07;;;19.60;99.90;;;;;;5008283;28;20044;-67
2022/08/18 05:14:17;;;;;;;7.45;6.60;;;19.60;99.90;;;;;;5010767;28;20026;-74
2022/08/18 05:16:44;;;;;;;6.50;5.47;;;19.70;99.90;;;;;;5014145;28;20026;-74
2022/08/18 05:19:11;;;;;;;8.68;5.97;;;19.70;99.90;;;;;;5014765;28;20098;-74
2022/08/18 05:21:40;;;;;;;7.32;5.35;;;19.80;99.90;;;;;;5016590;28;20037;-74
2022/08/18 05:24:07;;;;;;;10.45;6.00;;;19.80;99.90;;;;;;5016460;28;20022;-74
2022/08/18 05:26:34;;;;;;;6.53;5.57;;;19.80;99.90;;;;;;5017083;28;20505;-75
2022/08/18 05:28:59;;;;;;;7.78;6.03;;;19.80;99.90;;;;;;5006978;28;20023;-75
2022/08/18 05:31:28;;;;;;;8.13;6.28;;;19.90;99.90;;;;;;5035681;22;20041;-73
2022/08/18 05:33:54;;;;;;;8.48;5.43;;;19.80;99.90;;;;;;5015137;28;20037;-73
2022/08/18 05:36:49;;;;;;;8.30;6.20;;;19.80;99.90;;;;;;5013945;28;20045;-73
2022/08/18 05:39:20;;;;;;;9.52;6.75;;;19.80;99.90;;;;;;5012768;28;20124;-73
2022/08/18 05:42:10;;;;;;;9.23;5.93;;;19.80;99.90;;;;;;5013786;28;20022;-73
2022/08/18 05:44:40;;;;;;;9.05;5.95;;;19.80;99.90;;;;;;5005971;28;20092;-73
2022/08/18 05:47:16;;;;;;;7.88;5.93;;;19.80;99.90;;;;;;5011514;28;20037;-72
2022/08/18 05:49:45;;;;;;;6.82;5.25;;;19.80;99.90;;;;;;5012838;28;20044;-72
2022/08/18 05:52:24;;;;;;;10.13;6.00;;;19.70;99.90;;;;;;5011569;28;20053;-72
2022/08/18 05:57:50;;;;;;;7.13;5.78;;;19.70;99.90;;;;;;5012750;28;20414;-73
2022/08/18 06:00:22;;;;;;;8.15;6.05;;;19.70;99.90;;;;;;5017954;28;20022;-72
2022/08/18 06:03:15;;;;;;;11.77;5.70;;;19.80;99.90;;;;;;5010124;28;20026;-73
2022/08/18 06:05:52;;;;;;;7.60;5.32;;;19.80;99.90;;;;;;5010998;28;20022;-73
2022/08/18 06:08:21;;;;;;;7.60;5.45;;;19.90;99.90;;;;;;5009156;28;20072;-75
2022/08/18 06:10:49;;;;;;;8.88;5.88;;;20.00;99.90;;;;;;5013300;28;20411;-75
2022/08/18 06:13:19;;;;;;;11.93;5.60;;;20.10;99.90;;;;;;5009595;28;20154;-74
2022/08/18 06:16:04;;;;;;;7.97;5.13;;;20.10;99.90;;;;;;5003062;28;20056;-75
2022/08/18 06:18:44;;;;;;;5.97;5.25;;;20.20;99.90;;;;;;5009026;28;20036;-74
2022/08/18 06:21:19;;;;;;;8.63;5.60;;;20.20;99.90;;;;;;5006053;28;20034;-73
2022/08/18 06:24:09;;;;;;;8.98;5.85;;;20.30;99.90;;;;;;5008869;28;20128;-73
2022/08/18 06:27:18;;;;;;;7.90;5.45;;;20.30;99.90;;;;;;5011775;28;20018;-74
2022/08/18 06:30:09;;;;;;;7.70;5.25;;;20.40;99.90;;;;;;5008705;28;20026;-72
2022/08/18 06:32:35;;;;;;;6.78;5.07;;;20.50;99.90;;;;;;5007105;28;20160;-71
2022/08/18 06:35:05;;;;;;;7.05;5.15;;;20.50;99.90;;;;;;5008973;28;20117;-71
2022/08/18 06:40:41;;;;;;;7.80;5.00;;;20.60;99.90;;;;;;5012285;28;20091;-73
2022/08/18 06:43:12;;;;;;;7.60;4.88;;;20.60;99.90;;;;;;5012374;28;20041;-72
2022/08/18 06:45:40;;;;;;;6.28;5.07;;;20.60;99.90;;;;;;5010015;28;20122;-73
2022/08/18 06:48:17;;;;;;;9.40;4.90;;;20.60;99.90;;;;;;5011156;28;20166;-73
2022/08/18 06:50:54;;;;;;;7.43;5.25;;;20.60;99.90;;;;;;5011968;28;20422;-74
2022/08/18 06:53:20;;;;;;;8.90;5.32;;;20.60;99.90;;;;;;5009091;28;20050;-73
2022/08/18 06:55:48;;;;;;;9.57;5.43;;;20.60;99.90;;;;;;5011766;28;20080;-73
2022/08/18 06:58:17;;;;;;;8.57;5.35;;;20.60;99.90;;;;;;5009813;28;20021;-73
2022/08/18 07:00:56;;;;;;;6.90;5.03;;;20.70;99.90;;;;;;5012266;28;20398;-75
2022/08/18 07:03:36;;;;;;;6.78;4.10;;;20.70;99.90;;;;;;5006925;28;20503;-73
2022/08/18 07:06:09;;;;;;;9.57;4.75;;;20.80;99.90;;;;;;5004978;28;20035;-73
2022/08/18 07:08:36;;;;;;;7.53;5.03;;;20.90;99.90;;;;;;5006218;28;20025;-74
2022/08/18 07:11:13;;;;;;;5.47;4.40;;;20.90;99.90;;;;;;5010291;28;20026;-74
2022/08/18 07:13:43;;;;;;;9.27;4.90;;;21.00;99.90;;;;;;5008406;28;20030;-74
2022/08/18 07:16:15;;;;;;;5.75;4.68;;;21.00;99.90;;;;;;5008985;28;20025;-73
2022/08/18 07:18:42;;;;;;;5.88;5.07;;;21.00;99.90;;;;;;5010824;28;20096;-74
2022/08/18 07:21:22;;;;;;;6.22;5.03;;;20.90;99.90;;;;;;5007928;28;20025;-75
2022/08/18 07:23:59;;;;;;;6.00;4.63;;;20.90;99.90;;;;;;5008253;28;20786;-74
2022/08/18 07:26:25;;;;;;;8.10;5.10;;;20.90;99.90;;;;;;5009085;28;20022;-74
2022/08/18 07:28:52;;;;;;;8.40;5.45;;;20.90;99.90;;;;;;5016965;28;20018;-73
2022/08/18 07:31:39;;;;;;;8.07;5.43;;;20.90;99.90;;;;;;5008757;28;20041;-74
2022/08/18 07:34:13;;;;;;;7.30;5.82;;;20.90;99.90;;;;;;5010676;28;20053;-74
2022/08/18 07:36:48;;;;;;;7.40;5.90;;;20.80;99.90;;;;;;5008713;28;20633;-74
2022/08/18 07:39:38;;;;;;;8.20;6.07;;;20.80;99.90;;;;;;5006827;28;20114;-73
2022/08/18 07:42:16;;;;;;;10.05;7.07;;;20.70;99.90;;;;;;5012582;28;20042;-74
2022/08/18 07:44:44;;;;;;;7.60;5.97;;;20.70;99.90;;;;;;5008219;28;20109;-74
2022/08/18 07:47:17;;;;;;;7.35;6.18;;;20.60;99.90;;;;;;5014179;28;20026;-73
2022/08/18 07:49:44;;;;;;;9.63;6.38;;;20.70;99.90;;;;;;5014929;28;20112;-74
2022/08/18 07:52:18;;;;;;;9.43;6.50;;;20.60;99.90;;;;;;5011635;28;20018;-73
2022/08/18 07:54:44;;;;;;;;;;;20.60;99.90;;;;;;5011200;28;20097;-74
2022/08/18 07:57:13;;;;;;;8.98;6.32;;;20.60;99.90;;;;;;5004651;28;19910;-72
2022/08/18 07:59:47;;;;;;;9.88;6.75;;;20.50;99.90;;;;;;5008171;28;20025;-74
2022/08/18 08:02:27;;;;;;;10.48;6.90;;;20.40;99.90;;;;;;5009547;28;20018;-73
2022/08/18 08:05:44;;;;;;;10.10;7.38;;;20.30;99.90;;;;;;5005335;28;20054;-74
2022/08/18 08:08:40;;;;;;;8.82;7.25;;;20.30;99.90;;;;;;4982550;28;20092;-73
2022/08/18 08:11:17;;;;;;;9.85;7.45;;;20.30;99.90;;;;;;5005204;28;20029;-72
2022/08/18 08:13:42;;;;;;;11.07;7.47;;;20.30;99.90;;;;;;5005862;28;20545;-71
2022/08/18 08:16:36;;;;;;;12.00;7.72;;;20.40;99.90;;;;;;5004159;28;20036;-73
2022/08/18 08:19:32;;;;;;;10.13;7.57;;;20.50;99.90;;;;;;5005868;28;20667;-73
2022/08/18 08:22:18;;;;;;;8.52;7.05;;;20.50;99.90;;;;;;5006929;28;20053;-71
2022/08/18 08:25:05;;;;;;;10.75;7.30;;;20.60;99.90;;;;;;5000422;28;20483;-71
2022/08/18 08:27:52;;;;;;;11.20;7.80;;;20.70;99.90;;;;;;5020190;28;20048;-72
2022/08/18 08:30:22;;;;;;;10.10;7.10;;;20.80;99.90;;;;;;5003792;28;20030;-71
2022/08/18 08:33:14;;;;;;;11.05;7.43;;;20.90;99.90;;;;;;5008318;28;20092;-73
2022/08/18 08:35:47;;;;;;;9.75;7.20;;;21.00;99.90;;;;;;5005816;28;20046;-72
2022/08/18 08:38:38;;;;;;;10.85;7.00;;;21.10;99.90;;;;;;5024919;28;20054;-72
2022/08/18 08:41:10;;;;;;;7.97;6.95;;;21.10;99.90;;;;;;5007768;28;20037;-71
2022/08/18 08:43:45;;;;;;;8.52;6.18;;;21.20;99.90;;;;;;5009184;28;20057;-71
2022/08/18 08:46:21;;;;;;;7.72;6.60;;;21.20;99.90;;;;;;5004308;28;20034;-71
2022/08/18 08:49:00;;;;;;;8.30;6.70;;;21.30;99.90;;;;;;5005071;28;20037;-71
2022/08/18 08:51:50;;;;;;;9.23;8.05;;;21.30;99.90;;;;;;5007169;28;20022;-71
2022/08/18 08:54:18;;;;;;;8.63;6.90;;;21.40;99.90;;;;;;5012154;28;20030;-73
2022/08/18 08:56:47;;;;;;;8.63;7.05;;;21.50;99.90;;;;;;5009538;28;20030;-73
2022/08/18 08:59:17;;;;;;;9.18;7.38;;;21.50;99.90;;;;;;5007988;28;20022;-73
2022/08/18 09:01:50;;;;;;;11.50;8.32;;;21.60;99.90;;;;;;5008090;28;20034;-74
2022/08/18 09:04:16;;;;;;;;;;;21.60;99.90;;;;;;5011311;28;20033;-72
2022/08/18 09:06:57;;;;;;;10.20;7.72;;;21.60;99.90;;;;;;5007204;28;19913;-72
2022/08/18 09:09:41;;;;;;;10.43;7.63;;;21.70;99.90;;;;;;5008453;28;20482;-73
2022/08/18 09:12:18;;;;;;;8.68;7.07;;;21.70;99.90;;;;;;5006317;28;20026;-73
2022/08/18 09:15:10;;;;;;;14.52;6.95;;;21.80;99.90;;;;;;5010235;28;20427;-73
2022/08/18 09:18:03;;;;;;;14.50;8.48;;;21.90;99.90;;;;;;5005560;28;20104;-72
2022/08/18 09:20:47;;;;;;;12.30;7.35;;;22.00;99.90;;;;;;5006442;28;20022;-75
2022/08/18 09:23:23;;;;;;;6.78;5.78;;;22.10;99.90;;;;;;5006366;28;20041;-74
2022/08/18 09:25:53;;;;;;;7.32;5.95;;;22.10;99.90;;;;;;5009666;28;20022;-73
2022/08/18 09:28:18;;;;;;;9.45;6.88;;;22.20;99.90;;;;;;5008136;28;20116;-72
2022/08/18 09:30:44;;;;;;;9.02;6.55;;;22.30;99.90;;;;;;5008514;28;20073;-73
2022/08/18 09:33:17;;;;;;;9.63;7.10;;;22.40;99.90;;;;;;5007324;28;20030;-74
2022/08/18 09:36:23;;;;;;;9.13;6.47;;;22.50;99.90;;;;;;5010087;28;20076;-73
2022/08/18 09:42:12;;;;;;;8.20;6.00;;;22.70;99.90;;;;;;5006433;28;20513;-75
2022/08/18 09:44:40;;;;;;;8.95;6.53;;;22.70;99.90;;;;;;5007086;28;20092;-74
2022/08/18 09:47:07;;;;;;;10.90;6.40;;;22.70;99.90;;;;;;5009258;28;20080;-73
2022/08/18 09:49:45;;;;;;;9.57;6.30;;;22.70;99.90;;;;;;5007650;28;20030;-72
2022/08/18 09:52:20;;;;;;;8.32;6.40;;;22.70;99.90;;;;;;5010932;28;20026;-72
2022/08/18 09:54:57;;;;;;;8.82;6.22;;;22.70;99.90;;;;;;5007199;28;20030;-73
2022/08/18 09:57:37;;;;;;;6.63;5.05;;;22.80;99.90;;;;;;5021194;28;20040;-72
2022/08/18 10:00:03;;;;;;;9.82;6.32;;;22.90;99.90;;;;;;5002190;28;20021;-72
2022/08/18 10:02:29;;;;;;;6.60;5.20;;;22.90;99.90;;;;;;5013408;28;20041;-72
2022/08/18 10:05:17;;;;;;;6.85;5.15;;;22.90;99.90;;;;;;5014221;28;20097;-73
2022/08/18 10:07:54;;;;;;;8.13;5.72;;;22.90;99.90;;;;;;5010900;28;20537;-73
2022/08/18 10:10:27;;;;;;;6.25;5.40;;;23.00;99.90;;;;;;5010309;28;20097;-73
2022/08/18 10:13:17;;;;;;;9.33;5.87;;;23.00;99.90;;;;;;5009905;28;20045;-73
2022/08/18 10:16:07;;;;;;;5.95;5.30;;;23.00;99.90;;;;;;5008214;28;22261;-72
2022/08/18 10:18:45;;;;;;;7.32;4.97;;;23.10;99.90;;;;;;5009160;28;20029;-73
2022/08/18 10:21:29;;;;;;;6.45;4.95;;;23.20;99.90;;;;;;5028896;28;20025;-72
2022/08/18 10:24:04;;;;;;;5.78;4.90;;;23.20;99.90;;;;;;5007320;28;20032;-71
2022/08/18 10:26:29;;;;;;;6.20;5.32;;;23.30;99.90;;;;;;5004347;28;20018;-72
2022/08/18 10:29:04;;;;;;;6.78;4.68;;;23.30;99.90;;;;;;5002299;28;20374;-73
2022/08/18 10:31:51;;;;;;;7.38;5.45;;;23.30;99.90;;;;;;5008126;28;21378;-73
2022/08/18 10:34:35;;;;;;;7.30;5.68;;;23.30;99.90;;;;;;5008076;28;20037;-72
2022/08/18 10:37:01;;;;;;;;;;;23.40;99.90;;;;;;5006690;28;20072;-73
2022/08/18 10:39:51;;;;;;;7.03;5.65;;;23.50;99.90;;;;;;5025799;28;19909;-73
2022/08/18 10:42:23;;;;;;;7.97;5.82;;;23.60;99.90;;;;;;5006470;28;20018;-73
2022/08/18 10:44:55;;;;;;;6.43;5.60;;;23.60;99.90;;;;;;5009284;28;20470;-75
2022/08/18 10:47:30;;;;;;;7.55;5.70;;;23.70;99.90;;;;;;5002857;28;20033;-74
2022/08/18 10:49:57;;;;;;;8.98;6.68;;;23.80;99.90;;;;;;5006585;28;20037;-76
2022/08/18 10:52:45;;;;;;;8.00;6.57;;;23.90;99.90;;;;;;5008456;28;20022;-75
2022/08/18 10:55:45;;;;;;;9.02;6.15;;;23.80;99.90;;;;;;5008359;28;20033;-75
2022/08/18 10:58:32;;;;;;;7.60;5.18;;;23.90;99.90;;;;;;5006033;28;20098;-76
2022/08/18 11:01:29;;;;;;;9.45;6.93;;;24.00;99.90;;;;;;5007872;28;20029;-75
2022/08/18 11:04:23;;;;;;;9.38;6.18;;;24.10;99.90;;;;;;5012648;28;20043;-75
2022/08/18 11:06:52;;;;;;;9.02;6.45;;;24.20;99.90;;;;;;5010922;28;20148;-73
2022/08/18 11:09:27;;;;;;;10.10;6.80;;;24.30;99.90;;;;;;5006702;28;20421;-74
2022/08/18 11:11:55;;;;;;;9.38;6.95;;;24.40;99.90;;;;;;5009807;28;20565;-73
2022/08/18 11:14:40;;;;;;;8.95;5.95;;;24.40;99.90;;;;;;5010294;28;20025;-74
2022/08/18 11:17:23;;;;;;;7.18;5.80;;;24.50;99.90;;;;;;5011700;28;20070;-73
2022/08/18 11:19:50;;;;;;;8.05;5.70;;;24.50;99.90;;;;;;5008453;28;20029;-73
2022/08/18 11:22:31;;;;;;;6.00;5.32;;;24.40;99.90;;;;;;5007147;28;20026;-74
2022/08/18 11:24:57;;;;;;;9.07;6.18;;;24.40;99.90;;;;;;4992349;28;20041;-74
2022/08/18 11:27:26;;;;;;;7.22;5.80;;;24.40;99.90;;;;;;5007236;28;20434;-76
2022/08/18 11:29:53;;;;;;;9.38;7.28;;;24.50;99.90;;;;;;5001843;28;20026;-76
2022/08/18 11:32:21;;;;;;;8.48;6.97;;;24.50;99.90;;;;;;5011532;28;20038;-78
2022/08/18 11:35:11;;;;;;;11.45;7.22;;;24.60;99.90;;;;;;5010051;28;20059;-77
2022/08/18 11:37:53;;;;;;;11.27;7.53;;;24.60;99.90;;;;;;5012850;28;20540;-77
2022/08/18 11:40:28;;;;;;;9.73;7.25;;;24.60;99.90;;;;;;5014966;28;20022;-78
2022/08/18 11:43:09;;;;;;;9.82;7.38;;;24.60;99.90;;;;;;5009112;28;20391;-77
2022/08/18 11:45:53;;;;;;;15.93;10.32;;;24.60;99.90;;;;;;5015451;28;20029;-78
2022/08/18 11:48:30;;;;;;;14.13;9.70;;;24.50;99.90;;;;;;5013776;28;20101;-76
2022/08/18 11:50:56;;;;;;;10.52;8.45;;;24.50;99.90;;;;;;5013234;28;21798;-75
2022/08/18 11:53:56;;;;;;;8.82;6.97;;;24.50;99.90;;;;;;5010332;28;20157;-77
2022/08/18 11:56:32;;;;;;;15.30;7.65;;;24.30;99.90;;;;;;5015940;28;20080;-77
2022/08/18 11:59:17;;;;;;;11.18;8.32;;;24.30;99.90;;;;;;5014626;28;20029;-77
2022/08/18 12:01:49;;;;;;;9.95;8.20;;;24.30;99.90;;;;;;5011844;28;20032;-77
2022/08/18 12:04:30;;;;;;;15.20;10.15;;;24.40;99.90;;;;;;5009999;28;20084;-77
2022/08/18 12:06:59;;;;;;;11.05;8.75;;;24.40;99.90;;;;;;5011117;28;20037;-77
2022/08/18 12:09:38;;;;;;;14.93;8.70;;;24.40;99.90;;;;;;5011542;28;20461;-77
2022/08/18 12:12:29;;;;;;;14.45;10.00;;;24.50;99.90;;;;;;5015667;28;20026;-78
2022/08/18 12:15:01;;;;;;;10.20;8.10;;;24.60;99.90;;;;;;5017229;28;20042;-78
2022/08/18 12:17:28;;;;;;;11.82;8.73;;;24.70;99.90;;;;;;5010564;28;20030;-77
2022/08/18 12:19:56;;;;;;;11.50;9.27;;;24.70;99.90;;;;;;5009111;28;20518;-76
2022/08/18 12:22:30;;;;;;;15.93;10.27;;;24.80;99.90;;;;;;5008636;28;20033;-77
2022/08/18 12:24:56;;;;;;;13.07;8.95;;;24.70;99.90;;;;;;5012140;28;20494;-79
2022/08/18 12:27:23;;;;;;;13.20;9.65;;;24.80;99.60;;;;;;5015749;28;20112;-77
2022/08/18 12:29:51;;;;;;;10.85;8.38;;;24.80;99.90;;;;;;5013494;28;20160;-77
2022/08/18 12:32:18;;;;;;;15.40;8.38;;;25.00;99.90;;;;;;5009889;28;20026;-77
2022/08/18 12:34:45;;;;;;;12.40;8.00;;;25.00;99.20;;;;;;5010751;28;20030;-77
2022/08/18 12:37:16;;;;;;;8.32;6.75;;;25.10;98.60;;;;;;5011768;28;20075;-77
2022/08/18 12:39:42;;;;;;;9.32;7.50;;;25.00;97.70;;;;;;5008357;28;20018;-77
2022/08/18 12:42:08;;;;;;;10.02;7.10;;;25.10;98.30;;;;;;5009339;28;20026;-76
2022/08/18 12:44:34;;;;;;;9.38;7.68;;;25.10;98.20;;;;;;5006986;28;20513;-77
2022/08/18 12:47:08;;;;;;;11.05;7.88;;;25.20;98.60;;;;;;5009140;28;20036;-76
2022/08/18 12:49:34;;;;;;;8.77;7.85;;;25.30;98.30;;;;;;5011017;28;20018;-76
2022/08/18 12:52:00;;;;;;;9.00;7.28;;;25.20;98.00;;;;;;5012423;28;20121;-78
2022/08/18 12:54:26;;;;;;;12.23;6.82;;;25.10;98.00;;;;;;5012307;28;20033;-76
2022/08/18 12:56:56;;;;;;;10.68;7.60;;;25.00;98.20;;;;;;5015596;28;20092;-77
2022/08/18 12:59:23;;;;;;;10.35;8.02;;;25.00;98.60;;;;;;5011400;28;20025;-77
2022/08/18 13:01:49;;;;;;;9.57;7.90;;;24.90;98.80;;;;;;5010764;28;20049;-77
2022/08/18 13:04:15;;;;;;;7.82;6.97;;;24.90;98.80;;;;;;5008383;28;20030;-77
2022/08/18 13:06:47;;;;;;;10.63;7.10;;;24.90;98.90;;;;;;5011728;28;20487;-76
2022/08/18 13:09:13;;;;;;;11.25;7.85;;;24.90;98.50;;;;;;5011270;28;20119;-77
2022/08/18 13:11:38;;;;;;;10.90;7.50;;;24.80;98.40;;;;;;5012693;28;20030;-77
2022/08/18 13:14:04;;;;;;;9.93;7.28;;;24.80;98.30;;;;;;5014747;28;20085;-77
2022/08/18 13:16:33;;;;;;;12.27;8.00;;;24.70;98.30;;;;;;5021320;28;20391;-77
2022/08/18 13:18:58;;;;;;;10.48;7.60;;;24.70;98.10;;;;;;5013028;28;20033;-75
2022/08/18 13:21:24;;;;;;;10.15;7.68;;;24.70;97.80;;;;;;5011663;28;20030;-75
2022/08/18 13:23:50;;;;;;;9.25;7.93;;;24.70;97.90;;;;;;5013494;28;20034;-76
2022/08/18 13:26:24;;;;;;;10.50;8.20;;;24.70;98.30;;;;;;5016937;28;20494;-78
2022/08/18 13:28:49;;;;;;;10.07;8.43;;;24.70;98.40;;;;;;5014122;28;20797;-77